sensor_id;sensor_type;location;lat;lon;timestamp;P1;durP1;ratioP1;P2;durP2;ratioP2
42602;SDS011;28233;55.748;48.752;2023-08-20T00:00:11;3.35;;;1.05;;
42602;SDS011;28233;55.748;48.752;2023-08-20T00:02:16;1.58;;;0.88;;
42602;SDS011;28233;55.748;48.752;2023-08-20T00:04:27;3.17;;;0.77;;
42602;SDS011;28233;55.748;48.752;2023-08-20T00:06:30;6.97;;;1.30;;
42602;SDS011;28233;55.748;48.752;2023-08-20T00:08:33;2.45;;;1.10;;
42602;SDS011;28233;55.748;48.752;2023-08-20T00:10:37;3.88;;;1.00;;
42602;SDS011;28233;55.748;48.752;2023-08-20T00:12:40;3.92;;;1.40;;
42602;SDS011;28233;55.748;48.752;2023-08-20T00:17:01;4.15;;;1.60;;
42602;SDS011;28233;55.748;48.752;2023-08-20T00:19:04;4.57;;;1.20;;
42602;SDS011;28233;55.748;48.752;2023-08-20T00:21:07;2.55;;;1.83;;
42602;SDS011;28233;55.748;48.752;2023-08-20T00:23:10;3.13;;;0.88;;
42602;SDS011;28233;55.748;48.752;2023-08-20T00:25:13;2.78;;;1.13;;
42602;SDS011;28233;55.748;48.752;2023-08-20T00:27:18;5.60;;;1.13;;
42602;SDS011;28233;55.748;48.752;2023-08-20T00:29:21;1.80;;;0.98;;
42602;SDS011;28233;55.748;48.752;2023-08-20T00:31:23;6.43;;;1.20;;
42602;SDS011;28233;55.748;48.752;2023-08-20T00:33:26;4.05;;;1.30;;
42602;SDS011;28233;55.748;48.752;2023-08-20T00:35:29;5.55;;;1.13;;
42602;SDS011;28233;55.748;48.752;2023-08-20T00:37:32;2.05;;;1.55;;
42602;SDS011;28233;55.748;48.752;2023-08-20T00:39:35;7.25;;;1.05;;
42602;SDS011;28233;55.748;48.752;2023-08-20T00:41:38;6.07;;;0.95;;
42602;SDS011;28233;55.748;48.752;2023-08-20T00:43:41;6.95;;;1.52;;
42602;SDS011;28233;55.748;48.752;2023-08-20T00:45:43;7.15;;;1.77;;
42602;SDS011;28233;55.748;48.752;2023-08-20T00:47:46;4.25;;;1.15;;
42602;SDS011;28233;55.748;48.752;2023-08-20T00:49:50;5.60;;;1.20;;
42602;SDS011;28233;55.748;48.752;2023-08-20T00:51:53;5.63;;;1.25;;
42602;SDS011;28233;55.748;48.752;2023-08-20T00:53:56;4.85;;;1.15;;
42602;SDS011;28233;55.748;48.752;2023-08-20T00:55:59;4.60;;;0.98;;
42602;SDS011;28233;55.748;48.752;2023-08-20T00:58:02;2.42;;;1.20;;
42602;SDS011;28233;55.748;48.752;2023-08-20T01:00:05;5.03;;;2.13;;
42602;SDS011;28233;55.748;48.752;2023-08-20T01:02:12;7.28;;;1.30;;
42602;SDS011;28233;55.748;48.752;2023-08-20T01:04:14;4.10;;;1.25;;
42602;SDS011;28233;55.748;48.752;2023-08-20T01:08:51;2.53;;;1.42;;
42602;SDS011;28233;55.748;48.752;2023-08-20T01:11:01;7.57;;;1.30;;
42602;SDS011;28233;55.748;48.752;2023-08-20T01:13:08;11.75;;;1.75;;
42602;SDS011;28233;55.748;48.752;2023-08-20T01:15:11;2.13;;;1.20;;
42602;SDS011;28233;55.748;48.752;2023-08-20T01:17:16;4.80;;;1.30;;
42602;SDS011;28233;55.748;48.752;2023-08-20T01:19:19;1.27;;;0.90;;
42602;SDS011;28233;55.748;48.752;2023-08-20T01:21:37;5.18;;;1.52;;
42602;SDS011;28233;55.748;48.752;2023-08-20T01:28:36;5.05;;;1.75;;
42602;SDS011;28233;55.748;48.752;2023-08-20T01:30:41;9.00;;;1.90;;
42602;SDS011;28233;55.748;48.752;2023-08-20T01:32:47;4.07;;;1.45;;
42602;SDS011;28233;55.748;48.752;2023-08-20T01:34:53;9.98;;;2.10;;
42602;SDS011;28233;55.748;48.752;2023-08-20T01:36:56;5.50;;;1.90;;
42602;SDS011;28233;55.748;48.752;2023-08-20T01:38:58;3.60;;;1.55;;
42602;SDS011;28233;55.748;48.752;2023-08-20T01:41:01;9.73;;;1.98;;
42602;SDS011;28233;55.748;48.752;2023-08-20T01:43:04;7.45;;;1.83;;
42602;SDS011;28233;55.748;48.752;2023-08-20T01:45:07;3.83;;;1.50;;
42602;SDS011;28233;55.748;48.752;2023-08-20T01:47:10;5.55;;;1.15;;
42602;SDS011;28233;55.748;48.752;2023-08-20T01:49:13;5.55;;;1.45;;
42602;SDS011;28233;55.748;48.752;2023-08-20T01:51:16;2.67;;;1.05;;
42602;SDS011;28233;55.748;48.752;2023-08-20T01:53:18;2.28;;;1.02;;
42602;SDS011;28233;55.748;48.752;2023-08-20T01:55:22;1.65;;;1.00;;
42602;SDS011;28233;55.748;48.752;2023-08-20T01:57:25;4.35;;;1.00;;
42602;SDS011;28233;55.748;48.752;2023-08-20T01:59:28;6.70;;;1.63;;
42602;SDS011;28233;55.748;48.752;2023-08-20T02:01:30;3.53;;;1.33;;
42602;SDS011;28233;55.748;48.752;2023-08-20T02:03:34;2.97;;;1.70;;
42602;SDS011;28233;55.748;48.752;2023-08-20T02:05:39;3.65;;;1.00;;
42602;SDS011;28233;55.748;48.752;2023-08-20T02:07:42;2.33;;;1.50;;
42602;SDS011;28233;55.748;48.752;2023-08-20T02:09:44;2.72;;;1.40;;
42602;SDS011;28233;55.748;48.752;2023-08-20T02:11:47;3.33;;;1.30;;
42602;SDS011;28233;55.748;48.752;2023-08-20T02:13:50;6.53;;;1.35;;
42602;SDS011;28233;55.748;48.752;2023-08-20T02:16:02;5.80;;;1.60;;
42602;SDS011;28233;55.748;48.752;2023-08-20T02:18:26;6.55;;;1.55;;
42602;SDS011;28233;55.748;48.752;2023-08-20T02:20:29;4.72;;;2.15;;
42602;SDS011;28233;55.748;48.752;2023-08-20T02:22:32;6.30;;;1.25;;
42602;SDS011;28233;55.748;48.752;2023-08-20T02:24:36;3.95;;;1.50;;
42602;SDS011;28233;55.748;48.752;2023-08-20T02:26:39;8.20;;;1.30;;
42602;SDS011;28233;55.748;48.752;2023-08-20T02:28:42;4.30;;;1.38;;
42602;SDS011;28233;55.748;48.752;2023-08-20T02:30:45;3.80;;;1.25;;
42602;SDS011;28233;55.748;48.752;2023-08-20T02:32:49;2.42;;;1.10;;
42602;SDS011;28233;55.748;48.752;2023-08-20T02:34:51;4.20;;;1.65;;
42602;SDS011;28233;55.748;48.752;2023-08-20T02:36:55;3.15;;;1.20;;
42602;SDS011;28233;55.748;48.752;2023-08-20T02:38:58;2.78;;;1.45;;
42602;SDS011;28233;55.748;48.752;2023-08-20T02:41:01;3.25;;;1.77;;
42602;SDS011;28233;55.748;48.752;2023-08-20T02:43:07;7.32;;;1.73;;
42602;SDS011;28233;55.748;48.752;2023-08-20T02:45:10;3.88;;;1.33;;
42602;SDS011;28233;55.748;48.752;2023-08-20T02:47:13;5.55;;;1.40;;
42602;SDS011;28233;55.748;48.752;2023-08-20T02:49:15;10.00;;;1.75;;
42602;SDS011;28233;55.748;48.752;2023-08-20T02:51:18;3.53;;;1.70;;
42602;SDS011;28233;55.748;48.752;2023-08-20T02:53:21;4.85;;;1.88;;
42602;SDS011;28233;55.748;48.752;2023-08-20T02:55:25;4.95;;;1.65;;
42602;SDS011;28233;55.748;48.752;2023-08-20T02:57:27;8.40;;;1.48;;
42602;SDS011;28233;55.748;48.752;2023-08-20T02:59:30;4.47;;;2.13;;
42602;SDS011;28233;55.748;48.752;2023-08-20T03:01:33;6.88;;;1.27;;
42602;SDS011;28233;55.748;48.752;2023-08-20T03:03:36;3.53;;;1.25;;
42602;SDS011;28233;55.748;48.752;2023-08-20T03:05:40;2.65;;;1.63;;
42602;SDS011;28233;55.748;48.752;2023-08-20T03:07:43;6.22;;;2.40;;
42602;SDS011;28233;55.748;48.752;2023-08-20T03:09:46;7.95;;;2.55;;
42602;SDS011;28233;55.748;48.752;2023-08-20T03:11:49;6.00;;;2.30;;
42602;SDS011;28233;55.748;48.752;2023-08-20T03:13:52;2.72;;;1.55;;
42602;SDS011;28233;55.748;48.752;2023-08-20T03:15:54;4.93;;;1.60;;
42602;SDS011;28233;55.748;48.752;2023-08-20T03:17:57;5.07;;;1.65;;
42602;SDS011;28233;55.748;48.752;2023-08-20T03:20:00;3.10;;;1.67;;
42602;SDS011;28233;55.748;48.752;2023-08-20T03:22:06;6.20;;;2.00;;
42602;SDS011;28233;55.748;48.752;2023-08-20T03:24:09;2.72;;;1.63;;
42602;SDS011;28233;55.748;48.752;2023-08-20T03:26:12;4.95;;;1.70;;
42602;SDS011;28233;55.748;48.752;2023-08-20T03:28:15;4.55;;;1.58;;
42602;SDS011;28233;55.748;48.752;2023-08-20T03:30:18;5.35;;;1.73;;
42602;SDS011;28233;55.748;48.752;2023-08-20T03:32:21;5.70;;;1.63;;
42602;SDS011;28233;55.748;48.752;2023-08-20T03:34:25;6.05;;;1.48;;
42602;SDS011;28233;55.748;48.752;2023-08-20T03:36:28;6.03;;;1.40;;
42602;SDS011;28233;55.748;48.752;2023-08-20T03:38:30;4.13;;;1.75;;
42602;SDS011;28233;55.748;48.752;2023-08-20T03:40:33;22.30;;;2.47;;
42602;SDS011;28233;55.748;48.752;2023-08-20T03:42:36;9.38;;;2.15;;
42602;SDS011;28233;55.748;48.752;2023-08-20T03:44:38;4.32;;;1.38;;
42602;SDS011;28233;55.748;48.752;2023-08-20T03:46:41;4.80;;;1.58;;
42602;SDS011;28233;55.748;48.752;2023-08-20T03:48:44;5.13;;;1.42;;
42602;SDS011;28233;55.748;48.752;2023-08-20T03:50:47;5.28;;;1.20;;
42602;SDS011;28233;55.748;48.752;2023-08-20T03:52:49;2.13;;;1.42;;
42602;SDS011;28233;55.748;48.752;2023-08-20T03:54:52;3.38;;;1.52;;
42602;SDS011;28233;55.748;48.752;2023-08-20T03:56:55;6.25;;;1.50;;
42602;SDS011;28233;55.748;48.752;2023-08-20T03:58:58;1.63;;;1.00;;
42602;SDS011;28233;55.748;48.752;2023-08-20T04:01:00;3.45;;;0.88;;
42602;SDS011;28233;55.748;48.752;2023-08-20T04:03:03;4.25;;;1.30;;
42602;SDS011;28233;55.748;48.752;2023-08-20T04:05:06;2.22;;;1.25;;
42602;SDS011;28233;55.748;48.752;2023-08-20T04:07:10;5.25;;;1.23;;
42602;SDS011;28233;55.748;48.752;2023-08-20T04:09:12;4.57;;;1.73;;
42602;SDS011;28233;55.748;48.752;2023-08-20T04:11:15;2.92;;;1.02;;
42602;SDS011;28233;55.748;48.752;2023-08-20T04:13:19;4.07;;;1.60;;
42602;SDS011;28233;55.748;48.752;2023-08-20T04:15:22;4.53;;;1.27;;
42602;SDS011;28233;55.748;48.752;2023-08-20T04:17:24;2.30;;;1.20;;
42602;SDS011;28233;55.748;48.752;2023-08-20T04:19:27;3.05;;;1.05;;
42602;SDS011;28233;55.748;48.752;2023-08-20T04:21:30;3.88;;;1.00;;
42602;SDS011;28233;55.748;48.752;2023-08-20T04:23:33;3.58;;;1.10;;
42602;SDS011;28233;55.748;48.752;2023-08-20T04:25:35;1.50;;;0.80;;
42602;SDS011;28233;55.748;48.752;2023-08-20T04:27:38;2.08;;;0.80;;
42602;SDS011;28233;55.748;48.752;2023-08-20T04:29:41;2.92;;;1.33;;
42602;SDS011;28233;55.748;48.752;2023-08-20T04:31:44;7.28;;;1.13;;
42602;SDS011;28233;55.748;48.752;2023-08-20T04:33:47;5.97;;;1.70;;
42602;SDS011;28233;55.748;48.752;2023-08-20T04:35:49;2.95;;;1.35;;
42602;SDS011;28233;55.748;48.752;2023-08-20T04:37:53;2.45;;;1.15;;
42602;SDS011;28233;55.748;48.752;2023-08-20T04:39:55;12.35;;;1.48;;
42602;SDS011;28233;55.748;48.752;2023-08-20T04:41:58;3.83;;;1.20;;
42602;SDS011;28233;55.748;48.752;2023-08-20T04:44:02;4.55;;;1.25;;
42602;SDS011;28233;55.748;48.752;2023-08-20T04:46:05;3.05;;;1.27;;
42602;SDS011;28233;55.748;48.752;2023-08-20T04:48:08;4.53;;;0.75;;
42602;SDS011;28233;55.748;48.752;2023-08-20T04:50:11;2.17;;;0.90;;
42602;SDS011;28233;55.748;48.752;2023-08-20T04:52:14;2.92;;;0.68;;
42602;SDS011;28233;55.748;48.752;2023-08-20T04:54:16;1.50;;;0.88;;
42602;SDS011;28233;55.748;48.752;2023-08-20T04:56:19;1.77;;;0.60;;
42602;SDS011;28233;55.748;48.752;2023-08-20T04:58:22;4.10;;;0.70;;
42602;SDS011;28233;55.748;48.752;2023-08-20T05:00:26;2.70;;;0.70;;
42602;SDS011;28233;55.748;48.752;2023-08-20T05:02:29;6.25;;;0.82;;
42602;SDS011;28233;55.748;48.752;2023-08-20T05:04:32;1.48;;;0.98;;
42602;SDS011;28233;55.748;48.752;2023-08-20T05:06:35;1.80;;;0.60;;
42602;SDS011;28233;55.748;48.752;2023-08-20T05:08:37;2.00;;;0.47;;
42602;SDS011;28233;55.748;48.752;2023-08-20T05:10:40;2.80;;;0.77;;
42602;SDS011;28233;55.748;48.752;2023-08-20T05:12:43;3.90;;;0.90;;
42602;SDS011;28233;55.748;48.752;2023-08-20T05:14:46;1.48;;;0.47;;
42602;SDS011;28233;55.748;48.752;2023-08-20T05:16:50;3.13;;;0.70;;
42602;SDS011;28233;55.748;48.752;2023-08-20T05:18:53;2.10;;;0.77;;
42602;SDS011;28233;55.748;48.752;2023-08-20T05:20:56;1.40;;;0.85;;
42602;SDS011;28233;55.748;48.752;2023-08-20T05:22:59;2.78;;;0.88;;
42602;SDS011;28233;55.748;48.752;2023-08-20T05:25:02;1.35;;;0.90;;
42602;SDS011;28233;55.748;48.752;2023-08-20T05:29:08;0.82;;;0.70;;
42602;SDS011;28233;55.748;48.752;2023-08-20T05:31:11;3.80;;;0.82;;
42602;SDS011;28233;55.748;48.752;2023-08-20T05:33:14;1.85;;;0.73;;
42602;SDS011;28233;55.748;48.752;2023-08-20T05:35:17;3.53;;;1.10;;
42602;SDS011;28233;55.748;48.752;2023-08-20T05:37:19;3.47;;;1.20;;
42602;SDS011;28233;55.748;48.752;2023-08-20T05:39:22;1.70;;;0.90;;
42602;SDS011;28233;55.748;48.752;2023-08-20T05:41:25;1.70;;;0.95;;
42602;SDS011;28233;55.748;48.752;2023-08-20T05:43:28;1.90;;;1.02;;
42602;SDS011;28233;55.748;48.752;2023-08-20T05:45:31;5.35;;;1.00;;
42602;SDS011;28233;55.748;48.752;2023-08-20T05:47:33;1.25;;;0.70;;
42602;SDS011;28233;55.748;48.752;2023-08-20T05:49:36;3.58;;;1.10;;
42602;SDS011;28233;55.748;48.752;2023-08-20T05:51:39;7.85;;;1.05;;
42602;SDS011;28233;55.748;48.752;2023-08-20T05:53:42;2.47;;;0.60;;
42602;SDS011;28233;55.748;48.752;2023-08-20T05:55:45;1.02;;;0.70;;
42602;SDS011;28233;55.748;48.752;2023-08-20T05:57:48;3.50;;;0.88;;
42602;SDS011;28233;55.748;48.752;2023-08-20T05:59:51;4.80;;;0.93;;
42602;SDS011;28233;55.748;48.752;2023-08-20T06:01:53;5.03;;;0.70;;
42602;SDS011;28233;55.748;48.752;2023-08-20T06:03:57;4.13;;;0.95;;
42602;SDS011;28233;55.748;48.752;2023-08-20T06:05:59;1.42;;;0.63;;
42602;SDS011;28233;55.748;48.752;2023-08-20T06:08:07;2.60;;;0.95;;
42602;SDS011;28233;55.748;48.752;2023-08-20T06:10:09;2.30;;;0.52;;
42602;SDS011;28233;55.748;48.752;2023-08-20T06:12:14;1.85;;;0.68;;
42602;SDS011;28233;55.748;48.752;2023-08-20T06:14:16;4.07;;;0.80;;
42602;SDS011;28233;55.748;48.752;2023-08-20T06:16:19;1.33;;;0.52;;
42602;SDS011;28233;55.748;48.752;2023-08-20T06:18:22;1.10;;;0.55;;
42602;SDS011;28233;55.748;48.752;2023-08-20T06:20:25;2.90;;;0.85;;
42602;SDS011;28233;55.748;48.752;2023-08-20T06:22:28;4.50;;;0.50;;
42602;SDS011;28233;55.748;48.752;2023-08-20T06:24:31;1.50;;;0.50;;
42602;SDS011;28233;55.748;48.752;2023-08-20T06:26:33;2.80;;;0.52;;
42602;SDS011;28233;55.748;48.752;2023-08-20T06:28:36;2.75;;;0.50;;
42602;SDS011;28233;55.748;48.752;2023-08-20T06:30:39;4.97;;;0.43;;
42602;SDS011;28233;55.748;48.752;2023-08-20T06:32:42;2.28;;;0.40;;
42602;SDS011;28233;55.748;48.752;2023-08-20T06:34:46;1.70;;;0.55;;
42602;SDS011;28233;55.748;48.752;2023-08-20T06:36:49;1.00;;;0.50;;
42602;SDS011;28233;55.748;48.752;2023-08-20T06:38:52;2.45;;;1.02;;
42602;SDS011;28233;55.748;48.752;2023-08-20T06:40:55;2.15;;;0.60;;
42602;SDS011;28233;55.748;48.752;2023-08-20T06:43:01;2.03;;;0.63;;
42602;SDS011;28233;55.748;48.752;2023-08-20T06:45:05;1.27;;;0.52;;
42602;SDS011;28233;55.748;48.752;2023-08-20T06:47:08;0.80;;;0.40;;
42602;SDS011;28233;55.748;48.752;2023-08-20T06:49:10;1.27;;;0.63;;
42602;SDS011;28233;55.748;48.752;2023-08-20T06:51:14;3.35;;;1.02;;
42602;SDS011;28233;55.748;48.752;2023-08-20T06:53:20;2.35;;;0.57;;
42602;SDS011;28233;55.748;48.752;2023-08-20T06:55:23;5.95;;;0.60;;
42602;SDS011;28233;55.748;48.752;2023-08-20T06:57:26;3.30;;;0.40;;
42602;SDS011;28233;55.748;48.752;2023-08-20T06:59:28;3.55;;;0.85;;
42602;SDS011;28233;55.748;48.752;2023-08-20T07:01:31;2.03;;;0.50;;
42602;SDS011;28233;55.748;48.752;2023-08-20T07:03:37;5.03;;;0.40;;
42602;SDS011;28233;55.748;48.752;2023-08-20T07:05:44;1.10;;;0.50;;
42602;SDS011;28233;55.748;48.752;2023-08-20T07:07:46;0.93;;;0.47;;
42602;SDS011;28233;55.748;48.752;2023-08-20T07:09:49;2.15;;;0.60;;
42602;SDS011;28233;55.748;48.752;2023-08-20T07:11:52;1.52;;;0.70;;
42602;SDS011;28233;55.748;48.752;2023-08-20T07:13:55;1.55;;;0.43;;
42602;SDS011;28233;55.748;48.752;2023-08-20T07:15:58;2.03;;;0.85;;
42602;SDS011;28233;55.748;48.752;2023-08-20T07:18:01;2.40;;;0.68;;
42602;SDS011;28233;55.748;48.752;2023-08-20T07:20:04;2.80;;;0.52;;
42602;SDS011;28233;55.748;48.752;2023-08-20T07:22:07;1.02;;;0.43;;
42602;SDS011;28233;55.748;48.752;2023-08-20T07:24:10;4.82;;;1.08;;
42602;SDS011;28233;55.748;48.752;2023-08-20T07:26:13;5.45;;;0.90;;
42602;SDS011;28233;55.748;48.752;2023-08-20T07:28:16;0.82;;;0.52;;
42602;SDS011;28233;55.748;48.752;2023-08-20T07:30:28;0.98;;;0.57;;
42602;SDS011;28233;55.748;48.752;2023-08-20T07:32:31;1.08;;;0.47;;
42602;SDS011;28233;55.748;48.752;2023-08-20T07:34:35;0.93;;;0.60;;
42602;SDS011;28233;55.748;48.752;2023-08-20T07:36:54;3.15;;;0.93;;
42602;SDS011;28233;55.748;48.752;2023-08-20T07:39:00;1.88;;;0.63;;
42602;SDS011;28233;55.748;48.752;2023-08-20T07:41:05;2.42;;;0.60;;
42602;SDS011;28233;55.748;48.752;2023-08-20T07:43:09;2.97;;;0.77;;
42602;SDS011;28233;55.748;48.752;2023-08-20T07:45:12;1.17;;;0.80;;
42602;SDS011;28233;55.748;48.752;2023-08-20T07:47:15;0.98;;;0.40;;
42602;SDS011;28233;55.748;48.752;2023-08-20T07:49:18;2.08;;;0.65;;
42602;SDS011;28233;55.748;48.752;2023-08-20T07:51:21;0.80;;;0.45;;
42602;SDS011;28233;55.748;48.752;2023-08-20T07:53:23;5.30;;;0.82;;
42602;SDS011;28233;55.748;48.752;2023-08-20T07:55:26;8.10;;;1.33;;
42602;SDS011;28233;55.748;48.752;2023-08-20T07:57:29;1.92;;;0.43;;
42602;SDS011;28233;55.748;48.752;2023-08-20T07:59:32;1.35;;;0.70;;
42602;SDS011;28233;55.748;48.752;2023-08-20T08:01:35;2.33;;;0.70;;
42602;SDS011;28233;55.748;48.752;2023-08-20T08:03:39;4.55;;;0.82;;
42602;SDS011;28233;55.748;48.752;2023-08-20T08:05:49;1.67;;;0.70;;
42602;SDS011;28233;55.748;48.752;2023-08-20T08:07:52;1.30;;;0.52;;
42602;SDS011;28233;55.748;48.752;2023-08-20T08:09:55;1.75;;;0.88;;
42602;SDS011;28233;55.748;48.752;2023-08-20T08:11:58;1.52;;;1.08;;
42602;SDS011;28233;55.748;48.752;2023-08-20T08:14:01;2.33;;;0.70;;
42602;SDS011;28233;55.748;48.752;2023-08-20T08:16:05;1.33;;;0.93;;
42602;SDS011;28233;55.748;48.752;2023-08-20T08:18:08;2.97;;;1.02;;
42602;SDS011;28233;55.748;48.752;2023-08-20T08:20:11;1.60;;;1.00;;
42602;SDS011;28233;55.748;48.752;2023-08-20T08:22:15;10.35;;;1.52;;
42602;SDS011;28233;55.748;48.752;2023-08-20T08:24:17;2.80;;;0.80;;
42602;SDS011;28233;55.748;48.752;2023-08-20T08:26:20;1.60;;;0.80;;
42602;SDS011;28233;55.748;48.752;2023-08-20T08:28:23;5.05;;;1.30;;
42602;SDS011;28233;55.748;48.752;2023-08-20T08:30:26;2.38;;;0.60;;
42602;SDS011;28233;55.748;48.752;2023-08-20T08:32:28;4.35;;;0.70;;
42602;SDS011;28233;55.748;48.752;2023-08-20T08:34:31;4.35;;;0.90;;
42602;SDS011;28233;55.748;48.752;2023-08-20T08:36:34;4.70;;;1.45;;
42602;SDS011;28233;55.748;48.752;2023-08-20T08:38:39;4.20;;;0.80;;
42602;SDS011;28233;55.748;48.752;2023-08-20T08:40:42;3.22;;;0.70;;
42602;SDS011;28233;55.748;48.752;2023-08-20T08:42:47;13.68;;;0.82;;
42602;SDS011;28233;55.748;48.752;2023-08-20T08:44:52;1.25;;;0.60;;
42602;SDS011;28233;55.748;48.752;2023-08-20T08:46:55;2.65;;;0.80;;
42602;SDS011;28233;55.748;48.752;2023-08-20T08:48:57;4.60;;;1.10;;
42602;SDS011;28233;55.748;48.752;2023-08-20T08:51:01;3.15;;;0.70;;
42602;SDS011;28233;55.748;48.752;2023-08-20T08:53:04;3.15;;;0.88;;
42602;SDS011;28233;55.748;48.752;2023-08-20T08:55:08;1.35;;;0.50;;
42602;SDS011;28233;55.748;48.752;2023-08-20T08:57:11;2.78;;;0.65;;
42602;SDS011;28233;55.748;48.752;2023-08-20T08:59:14;2.42;;;0.93;;
42602;SDS011;28233;55.748;48.752;2023-08-20T09:01:17;2.58;;;0.85;;
42602;SDS011;28233;55.748;48.752;2023-08-20T09:03:20;2.00;;;0.93;;
42602;SDS011;28233;55.748;48.752;2023-08-20T09:05:23;4.28;;;1.38;;
42602;SDS011;28233;55.748;48.752;2023-08-20T09:07:26;3.67;;;0.90;;
42602;SDS011;28233;55.748;48.752;2023-08-20T09:09:29;5.05;;;1.05;;
42602;SDS011;28233;55.748;48.752;2023-08-20T09:11:34;1.92;;;1.05;;
42602;SDS011;28233;55.748;48.752;2023-08-20T09:13:38;1.77;;;0.65;;
42602;SDS011;28233;55.748;48.752;2023-08-20T09:15:42;1.55;;;0.93;;
42602;SDS011;28233;55.748;48.752;2023-08-20T09:17:46;4.53;;;1.10;;
42602;SDS011;28233;55.748;48.752;2023-08-20T09:19:49;2.45;;;1.00;;
42602;SDS011;28233;55.748;48.752;2023-08-20T09:21:52;7.00;;;1.27;;
42602;SDS011;28233;55.748;48.752;2023-08-20T09:23:56;2.75;;;0.98;;
42602;SDS011;28233;55.748;48.752;2023-08-20T09:26:01;2.42;;;0.93;;
42602;SDS011;28233;55.748;48.752;2023-08-20T09:28:05;1.98;;;1.08;;
42602;SDS011;28233;55.748;48.752;2023-08-20T09:30:08;1.27;;;0.90;;
42602;SDS011;28233;55.748;48.752;2023-08-20T09:32:16;1.73;;;1.00;;
42602;SDS011;28233;55.748;48.752;2023-08-20T09:34:20;2.80;;;0.80;;
42602;SDS011;28233;55.748;48.752;2023-08-20T09:36:32;3.03;;;1.10;;
42602;SDS011;28233;55.748;48.752;2023-08-20T09:38:37;1.60;;;1.20;;
42602;SDS011;28233;55.748;48.752;2023-08-20T09:40:41;2.20;;;1.25;;
42602;SDS011;28233;55.748;48.752;2023-08-20T09:42:43;3.92;;;0.95;;
42602;SDS011;28233;55.748;48.752;2023-08-20T09:44:47;4.78;;;1.65;;
42602;SDS011;28233;55.748;48.752;2023-08-20T09:46:53;3.42;;;1.50;;
42602;SDS011;28233;55.748;48.752;2023-08-20T09:48:56;3.45;;;1.23;;
42602;SDS011;28233;55.748;48.752;2023-08-20T09:51:04;2.88;;;1.40;;
42602;SDS011;28233;55.748;48.752;2023-08-20T09:53:14;4.00;;;2.10;;
42602;SDS011;28233;55.748;48.752;2023-08-20T09:55:20;4.50;;;1.70;;
42602;SDS011;28233;55.748;48.752;2023-08-20T09:57:35;6.28;;;1.60;;
42602;SDS011;28233;55.748;48.752;2023-08-20T09:59:40;3.47;;;1.50;;
42602;SDS011;28233;55.748;48.752;2023-08-20T10:01:44;5.65;;;1.98;;
42602;SDS011;28233;55.748;48.752;2023-08-20T10:03:50;3.63;;;1.88;;
42602;SDS011;28233;55.748;48.752;2023-08-20T10:05:53;2.70;;;1.83;;
42602;SDS011;28233;55.748;48.752;2023-08-20T10:07:57;6.32;;;2.03;;
42602;SDS011;28233;55.748;48.752;2023-08-20T10:10:02;6.35;;;1.38;;
42602;SDS011;28233;55.748;48.752;2023-08-20T10:12:16;3.47;;;1.25;;
42602;SDS011;28233;55.748;48.752;2023-08-20T10:14:19;2.33;;;1.55;;
42602;SDS011;28233;55.748;48.752;2023-08-20T10:16:22;2.35;;;1.25;;
42602;SDS011;28233;55.748;48.752;2023-08-20T10:18:26;2.47;;;1.30;;
42602;SDS011;28233;55.748;48.752;2023-08-20T10:20:29;6.90;;;1.40;;
42602;SDS011;28233;55.748;48.752;2023-08-20T10:22:38;1.88;;;1.35;;
42602;SDS011;28233;55.748;48.752;2023-08-20T10:24:49;3.30;;;1.33;;
42602;SDS011;28233;55.748;48.752;2023-08-20T10:31:45;5.55;;;1.45;;
42602;SDS011;28233;55.748;48.752;2023-08-20T10:33:53;2.60;;;1.45;;
42602;SDS011;28233;55.748;48.752;2023-08-20T10:35:57;4.18;;;1.25;;
42602;SDS011;28233;55.748;48.752;2023-08-20T10:38:03;2.40;;;1.55;;
42602;SDS011;28233;55.748;48.752;2023-08-20T10:40:10;5.20;;;1.33;;
42602;SDS011;28233;55.748;48.752;2023-08-20T10:44:22;2.97;;;1.10;;
42602;SDS011;28233;55.748;48.752;2023-08-20T10:46:29;4.47;;;1.48;;
42602;SDS011;28233;55.748;48.752;2023-08-20T10:48:39;4.20;;;1.17;;
42602;SDS011;28233;55.748;48.752;2023-08-20T10:50:42;6.63;;;1.77;;
42602;SDS011;28233;55.748;48.752;2023-08-20T10:52:49;2.58;;;1.65;;
42602;SDS011;28233;55.748;48.752;2023-08-20T10:54:56;5.22;;;1.48;;
42602;SDS011;28233;55.748;48.752;2023-08-20T10:56:59;2.13;;;1.35;;
42602;SDS011;28233;55.748;48.752;2023-08-20T10:59:05;4.80;;;1.83;;
42602;SDS011;28233;55.748;48.752;2023-08-20T11:03:21;2.03;;;1.60;;
42602;SDS011;28233;55.748;48.752;2023-08-20T11:05:24;2.40;;;1.63;;
42602;SDS011;28233;55.748;48.752;2023-08-20T11:07:27;4.18;;;1.75;;
42602;SDS011;28233;55.748;48.752;2023-08-20T11:09:33;1.98;;;1.33;;
42602;SDS011;28233;55.748;48.752;2023-08-20T11:11:35;4.28;;;1.50;;
42602;SDS011;28233;55.748;48.752;2023-08-20T11:13:41;3.10;;;1.67;;
42602;SDS011;28233;55.748;48.752;2023-08-20T11:15:45;2.65;;;1.10;;
42602;SDS011;28233;55.748;48.752;2023-08-20T11:17:48;3.20;;;1.48;;
42602;SDS011;28233;55.748;48.752;2023-08-20T11:19:53;2.47;;;1.48;;
42602;SDS011;28233;55.748;48.752;2023-08-20T11:22:09;3.20;;;1.95;;
42602;SDS011;28233;55.748;48.752;2023-08-20T11:24:12;2.72;;;1.55;;
42602;SDS011;28233;55.748;48.752;2023-08-20T11:26:16;2.85;;;1.77;;
42602;SDS011;28233;55.748;48.752;2023-08-20T11:28:20;3.00;;;1.70;;
42602;SDS011;28233;55.748;48.752;2023-08-20T11:30:23;2.17;;;1.50;;
42602;SDS011;28233;55.748;48.752;2023-08-20T11:32:32;4.30;;;1.73;;
42602;SDS011;28233;55.748;48.752;2023-08-20T11:34:35;2.53;;;1.92;;
42602;SDS011;28233;55.748;48.752;2023-08-20T11:36:40;7.50;;;2.00;;
42602;SDS011;28233;55.748;48.752;2023-08-20T11:38:48;2.63;;;1.67;;
42602;SDS011;28233;55.748;48.752;2023-08-20T11:40:54;4.55;;;1.92;;
42602;SDS011;28233;55.748;48.752;2023-08-20T11:42:57;3.10;;;1.73;;
42602;SDS011;28233;55.748;48.752;2023-08-20T11:45:00;2.88;;;1.60;;
42602;SDS011;28233;55.748;48.752;2023-08-20T11:47:12;5.35;;;1.65;;
42602;SDS011;28233;55.748;48.752;2023-08-20T11:51:19;3.70;;;1.90;;
42602;SDS011;28233;55.748;48.752;2023-08-20T11:53:21;3.17;;;1.80;;
42602;SDS011;28233;55.748;48.752;2023-08-20T11:55:29;2.58;;;1.55;;
42602;SDS011;28233;55.748;48.752;2023-08-20T11:57:33;4.18;;;1.70;;
42602;SDS011;28233;55.748;48.752;2023-08-20T11:59:36;2.15;;;1.52;;
42602;SDS011;28233;55.748;48.752;2023-08-20T12:01:39;4.38;;;1.50;;
42602;SDS011;28233;55.748;48.752;2023-08-20T12:03:43;4.22;;;2.28;;
42602;SDS011;28233;55.748;48.752;2023-08-20T12:05:47;7.93;;;2.00;;
42602;SDS011;28233;55.748;48.752;2023-08-20T12:08:03;3.67;;;2.17;;
42602;SDS011;28233;55.748;48.752;2023-08-20T12:10:19;2.42;;;1.98;;
42602;SDS011;28233;55.748;48.752;2023-08-20T12:12:26;6.07;;;1.80;;
42602;SDS011;28233;55.748;48.752;2023-08-20T12:14:28;8.02;;;1.83;;
42602;SDS011;28233;55.748;48.752;2023-08-20T12:16:31;2.58;;;2.15;;
42602;SDS011;28233;55.748;48.752;2023-08-20T12:18:34;3.92;;;1.80;;
42602;SDS011;28233;55.748;48.752;2023-08-20T12:20:37;6.32;;;2.03;;
42602;SDS011;28233;55.748;48.752;2023-08-20T12:22:40;3.70;;;1.65;;
42602;SDS011;28233;55.748;48.752;2023-08-20T12:24:43;3.78;;;1.98;;
42602;SDS011;28233;55.748;48.752;2023-08-20T12:26:46;4.40;;;1.70;;
42602;SDS011;28233;55.748;48.752;2023-08-20T12:28:49;2.78;;;1.85;;
42602;SDS011;28233;55.748;48.752;2023-08-20T12:30:52;3.70;;;1.85;;
42602;SDS011;28233;55.748;48.752;2023-08-20T12:32:55;4.63;;;2.42;;
42602;SDS011;28233;55.748;48.752;2023-08-20T12:34:58;2.03;;;1.83;;
42602;SDS011;28233;55.748;48.752;2023-08-20T12:37:01;3.10;;;1.95;;